createdAt,value
2022-08-20T00:02:30.228Z,98695.28
2022-08-20T00:05:39.694Z,98695.69
2022-08-20T00:08:42.885Z,98702.12
2022-08-20T00:11:45.156Z,98698.25
2022-08-20T00:14:47.383Z,98700.50
2022-08-20T00:17:50.720Z,98699.50
2022-08-20T00:20:55.249Z,98700.03
2022-08-20T00:23:57.617Z,98716.72
2022-08-20T00:26:59.875Z,98715.38
2022-08-20T00:30:04.870Z,98719.87
2022-08-20T00:33:14.415Z,98710.34
2022-08-20T00:36:17.645Z,98716.84
2022-08-20T00:39:19.870Z,98721.53
2022-08-20T00:42:22.205Z,98718.81
2022-08-20T00:45:28.271Z,98704.94
2022-08-20T00:48:32.933Z,98706.56
2022-08-20T00:51:39.960Z,98695.59
2022-08-20T00:54:52.561Z,98692.22
2022-08-20T00:58:01.209Z,98679.41
2022-08-20T01:01:05.818Z,98681.00
2022-08-20T01:04:08.234Z,98669.22
2022-08-20T01:07:10.854Z,98667.81
2022-08-20T01:10:19.401Z,98658.66
2022-08-20T01:13:23.805Z,98653.16
2022-08-20T01:16:29.449Z,98642.47
2022-08-20T01:19:39.794Z,98631.31
2022-08-20T01:23:28.082Z,98625.53
2022-08-20T01:26:40.387Z,98624.16
2022-08-20T01:29:42.666Z,98620.16
2022-08-20T01:32:44.872Z,98614.47
2022-08-20T01:35:47.227Z,98600.75
2022-08-20T01:38:53.122Z,98581.47
2022-08-20T01:42:08.644Z,98579.84
2022-08-20T01:45:11.160Z,98578.91
2022-08-20T01:48:14.236Z,98568.06
2022-08-20T01:51:25.915Z,98572.50
2022-08-20T01:54:28.553Z,98570.38
2022-08-20T01:57:30.803Z,98572.88
2022-08-20T02:00:34.971Z,98580.59
2022-08-20T02:03:40.774Z,98574.19
2022-08-20T02:06:57.194Z,98585.91
2022-08-20T02:10:00.390Z,98613.72
2022-08-20T02:13:03.026Z,98628.75
2022-08-20T02:16:06.142Z,98649.91
2022-08-20T02:19:15.032Z,98654.25
2022-08-20T02:22:27.576Z,98668.53
2022-08-20T02:25:32.714Z,98661.16
2022-08-20T02:28:34.987Z,98657.69
2022-08-20T02:31:37.949Z,98668.22
2022-08-20T02:35:02.365Z,98659.81
2022-08-20T02:38:04.951Z,98660.37
2022-08-20T02:41:08.467Z,98648.72
2022-08-20T02:44:11.096Z,98642.53
2022-08-20T02:47:13.362Z,98633.53
2022-08-20T02:50:18.632Z,98652.69
2022-08-20T02:53:21.430Z,98653.84
2022-08-20T02:56:23.676Z,98648.44
2022-08-20T02:59:25.916Z,98651.94
2022-08-20T03:02:28.505Z,98651.91
2022-08-20T03:05:30.857Z,98658.91
2022-08-20T03:08:33.885Z,98652.37
2022-08-20T03:11:36.526Z,98657.75
2022-08-20T03:14:38.874Z,98668.25
2022-08-20T03:17:41.109Z,98680.38
2022-08-20T03:20:46.030Z,98682.03
2022-08-20T03:23:48.468Z,98691.53
2022-08-20T03:26:50.702Z,98707.88
2022-08-20T03:29:52.921Z,98709.00
2022-08-20T03:32:55.512Z,98707.13
2022-08-20T03:35:58.263Z,98724.34
2022-08-20T03:39:02.475Z,98718.16
2022-08-20T03:42:05.198Z,98716.84
2022-08-20T03:45:08.952Z,98714.13
2022-08-20T03:48:15.934Z,98710.09
2022-08-20T03:51:18.113Z,98704.97
2022-08-20T03:54:20.378Z,98694.97
2022-08-20T03:57:22.668Z,98698.63
2022-08-20T04:00:31.891Z,98709.81
2022-08-20T04:03:35.081Z,98726.34
2022-08-20T04:06:37.306Z,98746.56
2022-08-20T04:09:41.280Z,98753.00
2022-08-20T04:12:48.803Z,98725.84
2022-08-20T04:15:55.609Z,98707.66
2022-08-20T04:19:02.440Z,98717.28
2022-08-20T04:22:05.801Z,98746.16
2022-08-20T04:25:12.154Z,98736.19
2022-08-20T04:28:30.219Z,98736.94
2022-08-20T04:31:35.250Z,98745.16
2022-08-20T04:34:37.435Z,98729.81
2022-08-20T04:37:39.681Z,98723.31
2022-08-20T04:40:54.066Z,98698.91
2022-08-20T04:43:58.182Z,98688.66
2022-08-20T04:47:01.829Z,98681.47
2022-08-20T04:50:04.647Z,98662.50
2022-08-20T04:53:09.469Z,98681.84
2022-08-20T04:56:12.578Z,98713.94
2022-08-20T04:59:15.083Z,98714.94
2022-08-20T05:02:18.479Z,98711.56
2022-08-20T05:05:22.456Z,98716.72
2022-08-20T05:08:26.061Z,98712.69
2022-08-20T05:11:35.854Z,98719.87
2022-08-20T05:14:39.091Z,98708.22
2022-08-20T05:17:43.011Z,98708.50
2022-08-20T05:20:46.501Z,98719.75
2022-08-20T05:23:49.393Z,98716.66
2022-08-20T05:26:52.124Z,98700.66
2022-08-20T05:30:10.239Z,98704.31
2022-08-20T05:33:19.008Z,98716.88
2022-08-20T05:36:22.148Z,98715.53
2022-08-20T05:39:24.454Z,98706.97
2022-08-20T05:42:29.202Z,98712.50
2022-08-20T05:45:37.488Z,98710.28
2022-08-20T05:48:39.733Z,98711.91
2022-08-20T05:51:42.256Z,98704.22
2022-08-20T05:54:44.511Z,98696.81
2022-08-20T05:57:46.847Z,98705.00
2022-08-20T06:00:49.853Z,98707.06
2022-08-20T06:04:10.838Z,98712.53
2022-08-20T06:07:13.114Z,98714.38
2022-08-20T06:10:15.378Z,98720.69
2022-08-20T06:13:17.592Z,98714.09
2022-08-20T06:16:19.920Z,98718.69
2022-08-20T06:19:26.164Z,98714.84
2022-08-20T06:22:28.807Z,98717.66
2022-08-20T06:25:36.092Z,98713.56
2022-08-20T06:28:40.053Z,98711.97
2022-08-20T06:31:42.330Z,98714.16
2022-08-20T06:34:50.624Z,98718.25
2022-08-20T06:37:53.603Z,98715.72
2022-08-20T06:40:55.821Z,98719.25
2022-08-20T06:43:58.056Z,98725.47
2022-08-20T06:47:02.048Z,98727.59
2022-08-20T06:50:08.850Z,98731.81
2022-08-20T06:53:13.608Z,98736.22
2022-08-20T06:56:16.641Z,98735.03
2022-08-20T06:59:18.848Z,98744.25
2022-08-20T07:02:21.134Z,98739.72
2022-08-20T07:05:34.277Z,98736.22
2022-08-20T07:08:36.558Z,98732.72
2022-08-20T07:11:38.793Z,98737.00
2022-08-20T07:14:41.336Z,98749.00
2022-08-20T07:18:01.143Z,98746.91
2022-08-20T07:21:04.237Z,98751.81
2022-08-20T07:24:06.841Z,98737.66
2022-08-20T07:27:09.076Z,98753.31
2022-08-20T07:30:34.148Z,98756.31
2022-08-20T07:33:56.402Z,98763.53
2022-08-20T07:37:00.607Z,98784.34
2022-08-20T07:40:03.066Z,98788.87
2022-08-20T07:43:05.319Z,98794.94
2022-08-20T07:46:09.091Z,98794.72
2022-08-20T07:49:11.404Z,98789.37
2022-08-20T07:52:13.768Z,98789.50
2022-08-20T07:55:16.538Z,98787.56
2022-08-20T07:58:21.404Z,98786.44
2022-08-20T08:01:31.346Z,98805.31
2022-08-20T08:04:34.070Z,98813.22
2022-08-20T08:07:36.850Z,98820.44
2022-08-20T08:10:41.714Z,98841.16
2022-08-20T08:13:44.418Z,98863.78
2022-08-20T08:16:46.744Z,98883.25
2022-08-20T08:19:50.312Z,98888.63
2022-08-20T08:22:53.864Z,98887.94
2022-08-20T08:25:56.097Z,98912.69
2022-08-20T08:28:58.614Z,98944.31
2022-08-20T08:32:02.228Z,98956.00
2022-08-20T08:35:07.602Z,98952.84
2022-08-20T08:38:09.838Z,98944.03
2022-08-20T08:41:21.651Z,98935.16
2022-08-20T08:44:27.295Z,98942.47
2022-08-20T08:47:34.732Z,98938.44
2022-08-20T08:50:53.377Z,98930.41
2022-08-20T08:53:57.124Z,98915.47
2022-08-20T08:57:00.264Z,98901.16
2022-08-20T09:00:10.032Z,98905.56
2022-08-20T09:03:18.600Z,98911.41
2022-08-20T09:06:23.992Z,98922.19
2022-08-20T09:09:31.320Z,98925.16
2022-08-20T09:12:33.570Z,98922.78
2022-08-20T09:15:35.799Z,98918.41
2022-08-20T09:18:38.387Z,98926.28
2022-08-20T09:21:40.578Z,98949.47
2022-08-20T09:24:43.700Z,98988.81
2022-08-20T09:27:46.121Z,99023.66
2022-08-20T09:30:50.677Z,99014.19
2022-08-20T09:33:54.092Z,98985.94
2022-08-20T09:36:56.346Z,99004.50
2022-08-20T09:39:59.487Z,99000.78
2022-08-20T09:43:03.586Z,98962.78
2022-08-20T09:46:06.025Z,98963.31
2022-08-20T09:49:08.920Z,98965.75
2022-08-20T09:52:31.622Z,98949.87
2022-08-20T09:55:39.639Z,98936.69
2022-08-20T09:58:48.819Z,98909.75
2022-08-20T10:01:53.897Z,98899.00
2022-08-20T10:04:56.175Z,98885.50
2022-08-20T10:07:59.821Z,98863.97
2022-08-20T10:11:02.177Z,98853.22
2022-08-20T10:14:04.519Z,98851.34
2022-08-20T10:17:08.705Z,98850.25
2022-08-20T10:20:13.304Z,98852.38
2022-08-20T10:23:15.716Z,98844.03
2022-08-20T10:26:18.049Z,98825.69
2022-08-20T10:29:20.261Z,98846.94
2022-08-20T10:32:22.542Z,98851.44
2022-08-20T10:35:24.864Z,98849.75
2022-08-20T10:38:29.793Z,98839.94
2022-08-20T10:41:31.991Z,98846.75
2022-08-20T10:44:34.305Z,98851.75
2022-08-20T10:47:36.713Z,98858.78
2022-08-20T10:50:38.991Z,98851.25
2022-08-20T10:53:41.228Z,98854.50
2022-08-20T10:56:43.532Z,98860.41
2022-08-20T10:59:47.790Z,98878.22
2022-08-20T11:02:50.206Z,98882.28
2022-08-20T11:05:52.607Z,98873.66
2022-08-20T11:08:56.990Z,98865.59
2022-08-20T11:11:59.458Z,98852.38
2022-08-20T11:15:01.745Z,98847.00
2022-08-20T11:18:04.585Z,98856.69
2022-08-20T11:21:06.979Z,98865.59
2022-08-20T11:24:11.053Z,98881.19
2022-08-20T11:27:23.704Z,98871.19
2022-08-20T11:30:30.462Z,98863.41
2022-08-20T11:33:32.682Z,98866.09
2022-08-20T11:36:35.293Z,98852.34
2022-08-20T11:39:41.577Z,98852.34
2022-08-20T11:43:04.349Z,98849.34
2022-08-20T11:46:06.405Z,98850.13
2022-08-20T11:49:11.650Z,98852.84
2022-08-20T11:52:14.242Z,98848.22
2022-08-20T11:55:18.041Z,98849.63
2022-08-20T11:58:20.459Z,98854.12
2022-08-20T12:01:22.737Z,98852.75
2022-08-20T12:04:25.237Z,98849.53
2022-08-20T12:07:29.225Z,98852.31
2022-08-20T12:10:31.925Z,98847.81
2022-08-20T12:13:48.502Z,98840.69
2022-08-20T12:16:51.310Z,98840.50
2022-08-20T12:19:55.698Z,98835.31
2022-08-20T12:22:59.005Z,98819.97
2022-08-20T12:26:03.327Z,98820.72
2022-08-20T12:29:05.647Z,98804.47
2022-08-20T12:32:08.813Z,98806.81
2022-08-20T12:35:12.975Z,98796.19
2022-08-20T12:38:15.212Z,98793.94
2022-08-20T12:41:17.411Z,98794.91
2022-08-20T12:44:19.610Z,98784.47
2022-08-20T12:47:33.623Z,98776.53
2022-08-20T12:50:37.471Z,98787.81
2022-08-20T12:53:40.061Z,98782.78
2022-08-20T12:56:42.324Z,98781.09
2022-08-20T12:59:44.571Z,98768.03
2022-08-20T13:02:46.855Z,98756.97
2022-08-20T13:05:50.842Z,98752.16
2022-08-20T13:08:53.094Z,98765.53
2022-08-20T13:11:55.320Z,98768.44
2022-08-20T13:14:57.554Z,98761.38
2022-08-20T13:18:01.844Z,98754.62
2022-08-20T13:21:04.128Z,98746.16
2022-08-20T13:24:06.460Z,98738.69
2022-08-20T13:27:17.760Z,98749.09
2022-08-20T13:30:20.346Z,98744.34
2022-08-20T13:33:22.663Z,98737.28
2022-08-20T13:36:25.955Z,98732.62
2022-08-20T13:39:28.220Z,98731.53
2022-08-20T13:42:30.550Z,98736.06
2022-08-20T13:45:32.930Z,98734.03
2022-08-20T13:48:35.336Z,98730.56
2022-08-20T13:51:37.556Z,98729.22
2022-08-20T13:54:39.989Z,98728.87
2022-08-20T13:57:44.871Z,98747.09
2022-08-20T14:00:47.185Z,98741.19
2022-08-20T14:03:49.409Z,98751.41
2022-08-20T14:06:51.873Z,98760.50
2022-08-20T14:09:59.827Z,98770.22
2022-08-20T14:13:03.558Z,98769.47
2022-08-20T14:16:05.954Z,98775.19
2022-08-20T14:19:23.768Z,98788.19
2022-08-20T14:22:26.465Z,98770.59
2022-08-20T14:25:30.691Z,98764.38
2022-08-20T14:28:32.889Z,98747.69
2022-08-20T14:31:35.088Z,98749.81
2022-08-20T14:34:37.916Z,98742.31
2022-08-20T14:37:46.422Z,98730.69
2022-08-20T14:40:50.488Z,98732.22
2022-08-20T14:43:52.988Z,98723.84
2022-08-20T14:46:55.823Z,98716.16
2022-08-20T14:50:02.544Z,98720.16
2022-08-20T14:53:07.636Z,98725.56
2022-08-20T14:56:09.852Z,98718.16
2022-08-20T14:59:12.105Z,98723.28
2022-08-20T15:02:16.158Z,98741.13
2022-08-20T15:05:19.090Z,98737.22
2022-08-20T15:08:21.588Z,98737.47
2022-08-20T15:11:34.164Z,98748.94
2022-08-20T15:14:39.311Z,98749.50
2022-08-20T15:17:50.797Z,98750.44
2022-08-20T15:20:53.036Z,98749.81
2022-08-20T15:23:55.269Z,98760.09
2022-08-20T15:26:57.575Z,98747.34
2022-08-20T15:29:59.863Z,98753.41
2022-08-20T15:33:02.996Z,98755.53
2022-08-20T15:36:06.867Z,98752.00
2022-08-20T15:39:09.106Z,98748.97
2022-08-20T15:42:12.968Z,98743.28
2022-08-20T15:45:21.973Z,98744.06
2022-08-20T15:48:33.359Z,98754.22
2022-08-20T15:51:38.574Z,98755.31
2022-08-20T15:54:41.099Z,98756.53
2022-08-20T15:57:54.997Z,98755.03
2022-08-20T16:01:42.874Z,98762.25
2022-08-20T16:04:57.600Z,98766.75
2022-08-20T16:08:11.756Z,98772.00
2022-08-20T16:11:35.622Z,98778.78
2022-08-20T16:14:43.966Z,98771.63
2022-08-20T16:17:49.717Z,98771.09
2022-08-20T16:20:54.395Z,98775.28
2022-08-20T16:23:57.605Z,98769.81
2022-08-20T16:27:27.614Z,98771.75
2022-08-20T16:30:35.481Z,98772.09
2022-08-20T16:33:55.063Z,98767.69
2022-08-20T16:37:27.761Z,98765.00
2022-08-20T16:40:57.091Z,98765.03
2022-08-20T16:44:04.236Z,98769.31
2022-08-20T16:47:22.789Z,98776.91
2022-08-20T16:50:35.418Z,98777.16
2022-08-20T16:53:37.714Z,98779.31
2022-08-20T16:56:46.149Z,98782.00
2022-08-20T16:59:59.100Z,98778.47
2022-08-20T17:03:33.583Z,98781.44
2022-08-20T17:06:48.355Z,98780.97
2022-08-20T17:09:52.690Z,98786.06
2022-08-20T17:13:02.840Z,98787.69
2022-08-20T17:16:06.700Z,98776.34
2022-08-20T17:19:31.964Z,98782.28
2022-08-20T17:22:43.265Z,98783.44
2022-08-20T17:25:55.880Z,98782.37
2022-08-20T17:29:05.960Z,98776.59
2022-08-20T17:32:09.384Z,98766.28
2022-08-20T17:35:24.574Z,98763.97
2022-08-20T17:38:32.976Z,98767.00
2022-08-20T17:41:36.138Z,98767.22
2022-08-20T17:44:46.002Z,98762.97
2022-08-20T17:47:48.877Z,98760.75
2022-08-20T17:50:52.493Z,98758.63
2022-08-20T17:54:02.609Z,98752.22
2022-08-20T17:57:10.237Z,98749.84
2022-08-20T18:00:17.973Z,98755.78
2022-08-20T18:03:23.927Z,98753.94
2022-08-20T18:07:01.872Z,98759.63
2022-08-20T18:10:12.256Z,98765.81
2022-08-20T18:13:19.207Z,98766.13
2022-08-20T18:16:37.175Z,98763.97
2022-08-20T18:19:54.521Z,98760.25
2022-08-20T18:23:10.768Z,98758.91
2022-08-20T18:26:31.825Z,98757.34
2022-08-20T18:29:35.799Z,98758.91
2022-08-20T18:32:38.801Z,98750.22
2022-08-20T18:35:45.962Z,98757.56
2022-08-20T18:39:00.543Z,98745.25
2022-08-20T18:42:06.858Z,98740.62
2022-08-20T18:45:09.247Z,98739.59
2022-08-20T18:48:21.243Z,98743.91
2022-08-20T18:51:29.429Z,98744.44
2022-08-20T18:54:32.927Z,98755.19
2022-08-20T18:57:41.862Z,98749.25
2022-08-20T19:00:49.731Z,98753.13
2022-08-20T19:03:55.688Z,98757.47
2022-08-20T19:07:02.064Z,98747.47
2022-08-20T19:10:39.772Z,98744.25
2022-08-20T19:13:54.320Z,98760.72
2022-08-20T19:17:02.607Z,98760.69
2022-08-20T19:20:19.153Z,98758.31
2022-08-20T19:23:24.157Z,98751.06
2022-08-20T19:26:30.772Z,98736.00
2022-08-20T19:29:36.997Z,98728.72
2022-08-20T19:32:45.475Z,98720.87
2022-08-20T19:35:49.557Z,98727.84
2022-08-20T19:38:55.155Z,98725.16
2022-08-20T19:42:14.234Z,98727.84
2022-08-20T19:45:27.831Z,98735.94
2022-08-20T19:48:45.175Z,98739.41
2022-08-20T19:52:01.911Z,98729.97
2022-08-20T19:55:04.974Z,98737.09
2022-08-20T19:58:20.202Z,98732.75
2022-08-20T20:01:29.074Z,98737.63
2022-08-20T20:04:55.293Z,98736.53
2022-08-20T20:07:58.624Z,98733.03
2022-08-20T20:11:00.909Z,98741.38
2022-08-20T20:14:11.596Z,98741.41
2022-08-20T20:17:23.091Z,98737.88
2022-08-20T20:20:28.938Z,98729.00
2022-08-20T20:23:41.678Z,98723.84
2022-08-20T20:26:49.706Z,98719.03
2022-08-20T20:29:59.800Z,98721.72
2022-08-20T20:33:13.269Z,98711.22
2022-08-20T20:36:41.581Z,98707.72
2022-08-20T20:39:47.101Z,98706.88
2022-08-20T20:43:07.782Z,98714.16
2022-08-20T20:46:14.552Z,98711.72
2022-08-20T20:49:27.599Z,98704.47
2022-08-20T20:52:33.127Z,98707.72
2022-08-20T20:55:37.404Z,98701.06
2022-08-20T20:58:39.612Z,98695.66
2022-08-20T21:01:48.869Z,98694.06
2022-08-20T21:04:52.260Z,98690.03
2022-08-20T21:08:00.064Z,98690.84
2022-08-20T21:11:02.860Z,98689.44
2022-08-20T21:14:05.161Z,98698.63
2022-08-20T21:17:09.786Z,98706.47
2022-08-20T21:20:12.362Z,98708.06
2022-08-20T21:23:14.683Z,98706.72
2022-08-20T21:26:16.940Z,98702.97
2022-08-20T21:29:32.505Z,98697.31
2022-08-20T21:32:35.301Z,98690.84
2022-08-20T21:35:38.922Z,98689.78
2022-08-20T21:38:41.175Z,98696.75
2022-08-20T21:41:43.790Z,98701.06
2022-08-20T21:44:49.477Z,98704.53
2022-08-20T21:47:52.423Z,98713.94
2022-08-20T21:50:54.685Z,98709.91
2022-08-20T21:53:56.948Z,98706.66
2022-08-20T21:57:03.405Z,98717.16
2022-08-20T22:00:12.987Z,98713.28
2022-08-20T22:03:16.161Z,98711.63
2022-08-20T22:06:18.679Z,98718.91
2022-08-20T22:09:20.952Z,98707.41
2022-08-20T22:12:24.485Z,98706.66
2022-08-20T22:15:26.794Z,98705.59
2022-08-20T22:18:29.197Z,98695.97
2022-08-20T22:21:33.687Z,98694.06
2022-08-20T22:24:35.905Z,98693.50
2022-08-20T22:27:38.244Z,98701.78
2022-08-20T22:30:42.510Z,98698.03
2022-08-20T22:33:44.971Z,98695.59
2022-08-20T22:36:47.979Z,98698.56
2022-08-20T22:39:50.261Z,98702.84
2022-08-20T22:42:52.917Z,98701.00
2022-08-20T22:45:58.178Z,98697.75
2022-08-20T22:49:00.508Z,98693.50
2022-08-20T22:52:02.962Z,98688.88
2022-08-20T22:55:06.539Z,98677.03
2022-08-20T22:58:08.834Z,98679.47
2022-08-20T23:01:12.830Z,98684.53
2022-08-20T23:04:24.439Z,98681.06
2022-08-20T23:07:26.679Z,98670.00
2022-08-20T23:10:31.931Z,98670.53
2022-08-20T23:13:34.190Z,98665.13
2022-08-20T23:16:39.163Z,98671.88
2022-08-20T23:19:41.966Z,98659.22
2022-08-20T23:22:44.877Z,98652.03
2022-08-20T23:25:47.485Z,98653.97
2022-08-20T23:28:49.885Z,98659.84
2022-08-20T23:31:52.380Z,98662.50
2022-08-20T23:34:54.569Z,98658.16
2022-08-20T23:37:57.817Z,98656.81
2022-08-20T23:41:00.052Z,98656.81
2022-08-20T23:44:02.281Z,98656.56
2022-08-20T23:47:04.728Z,98649.88
2022-08-20T23:50:09.345Z,98638.59
2022-08-20T23:53:11.874Z,98640.22
2022-08-20T23:56:14.108Z,98634.31
2022-08-20T23:59:16.689Z,98635.69
